sensor_id;sensor_type;location;lat;lon;timestamp;P1;durP1;ratioP1;P2;durP2;ratioP2
22070;SDS011;11200;51.488;6.668;2022-08-04T00:00:44;3.15;;;1.88;;
22070;SDS011;11200;51.488;6.668;2022-08-04T00:03:20;3.03;;;1.95;;
22070;SDS011;11200;51.488;6.668;2022-08-04T00:05:53;3.55;;;2.17;;
22070;SDS011;11200;51.488;6.668;2022-08-04T00:08:26;3.13;;;2.15;;
22070;SDS011;11200;51.488;6.668;2022-08-04T00:10:54;3.38;;;2.00;;
22070;SDS011;11200;51.488;6.668;2022-08-04T00:13:23;2.92;;;2.00;;
22070;SDS011;11200;51.488;6.668;2022-08-04T00:15:51;3.63;;;2.05;;
22070;SDS011;11200;51.488;6.668;2022-08-04T00:18:22;5.43;;;2.40;;
22070;SDS011;11200;51.488;6.668;2022-08-04T00:20:52;4.40;;;2.50;;
22070;SDS011;11200;51.488;6.668;2022-08-04T00:23:23;4.22;;;2.30;;
22070;SDS011;11200;51.488;6.668;2022-08-04T00:25:51;3.53;;;2.60;;
22070;SDS011;11200;51.488;6.668;2022-08-04T00:28:18;4.57;;;2.40;;
22070;SDS011;11200;51.488;6.668;2022-08-04T00:30:45;6.07;;;2.50;;
22070;SDS011;11200;51.488;6.668;2022-08-04T00:33:10;3.70;;;2.50;;
22070;SDS011;11200;51.488;6.668;2022-08-04T00:35:42;3.08;;;2.20;;
22070;SDS011;11200;51.488;6.668;2022-08-04T00:38:09;4.50;;;2.70;;
22070;SDS011;11200;51.488;6.668;2022-08-04T00:43:22;4.20;;;2.67;;
22070;SDS011;11200;51.488;6.668;2022-08-04T00:51:49;4.25;;;2.63;;
22070;SDS011;11200;51.488;6.668;2022-08-04T00:54:33;5.30;;;3.00;;
22070;SDS011;11200;51.488;6.668;2022-08-04T01:02:50;5.53;;;2.90;;
22070;SDS011;11200;51.488;6.668;2022-08-04T01:08:48;4.82;;;2.83;;
22070;SDS011;11200;51.488;6.668;2022-08-04T01:17:18;3.83;;;2.47;;
22070;SDS011;11200;51.488;6.668;2022-08-04T01:22:28;4.68;;;2.55;;
22070;SDS011;11200;51.488;6.668;2022-08-04T01:27:46;5.32;;;2.80;;
22070;SDS011;11200;51.488;6.668;2022-08-04T01:30:23;4.15;;;2.50;;
22070;SDS011;11200;51.488;6.668;2022-08-04T01:32:51;6.57;;;2.90;;
22070;SDS011;11200;51.488;6.668;2022-08-04T01:35:23;5.25;;;2.55;;
22070;SDS011;11200;51.488;6.668;2022-08-04T01:38:00;4.78;;;2.72;;
22070;SDS011;11200;51.488;6.668;2022-08-04T01:40:33;3.95;;;2.47;;
22070;SDS011;11200;51.488;6.668;2022-08-04T01:43:02;4.07;;;2.88;;
22070;SDS011;11200;51.488;6.668;2022-08-04T01:45:29;3.63;;;2.50;;
22070;SDS011;11200;51.488;6.668;2022-08-04T01:47:55;4.65;;;2.60;;
22070;SDS011;11200;51.488;6.668;2022-08-04T01:50:21;5.20;;;2.70;;
22070;SDS011;11200;51.488;6.668;2022-08-04T01:52:51;3.55;;;2.45;;
22070;SDS011;11200;51.488;6.668;2022-08-04T01:55:18;4.97;;;2.75;;
22070;SDS011;11200;51.488;6.668;2022-08-04T02:00:18;5.97;;;2.85;;
22070;SDS011;11200;51.488;6.668;2022-08-04T02:02:45;5.05;;;2.90;;
22070;SDS011;11200;51.488;6.668;2022-08-04T02:05:13;4.57;;;2.72;;
22070;SDS011;11200;51.488;6.668;2022-08-04T02:10:22;4.05;;;3.00;;
22070;SDS011;11200;51.488;6.668;2022-08-04T02:18:57;7.72;;;2.95;;
22070;SDS011;11200;51.488;6.668;2022-08-04T02:21:27;5.35;;;2.70;;
22070;SDS011;11200;51.488;6.668;2022-08-04T02:24:05;4.68;;;2.80;;
22070;SDS011;11200;51.488;6.668;2022-08-04T02:26:34;4.25;;;2.50;;
22070;SDS011;11200;51.488;6.668;2022-08-04T02:29:11;4.30;;;2.40;;
22070;SDS011;11200;51.488;6.668;2022-08-04T02:36:56;4.38;;;2.75;;
22070;SDS011;11200;51.488;6.668;2022-08-04T02:39:23;5.13;;;2.78;;
22070;SDS011;11200;51.488;6.668;2022-08-04T02:41:54;3.67;;;2.50;;
22070;SDS011;11200;51.488;6.668;2022-08-04T02:44:23;6.15;;;2.70;;
22070;SDS011;11200;51.488;6.668;2022-08-04T02:46:52;4.38;;;2.53;;
22070;SDS011;11200;51.488;6.668;2022-08-04T02:49:19;4.72;;;2.63;;
22070;SDS011;11200;51.488;6.668;2022-08-04T02:51:49;4.45;;;2.17;;
22070;SDS011;11200;51.488;6.668;2022-08-04T02:54:17;5.10;;;2.90;;
22070;SDS011;11200;51.488;6.668;2022-08-04T02:56:46;6.80;;;2.95;;
22070;SDS011;11200;51.488;6.668;2022-08-04T02:59:14;5.50;;;2.78;;
22070;SDS011;11200;51.488;6.668;2022-08-04T03:01:43;6.05;;;2.75;;
22070;SDS011;11200;51.488;6.668;2022-08-04T03:23:52;6.28;;;3.05;;
22070;SDS011;11200;51.488;6.668;2022-08-04T03:29:54;5.07;;;2.80;;
22070;SDS011;11200;51.488;6.668;2022-08-04T03:43:18;4.38;;;2.63;;
22070;SDS011;11200;51.488;6.668;2022-08-04T04:22:29;4.72;;;2.67;;
22070;SDS011;11200;51.488;6.668;2022-08-04T04:32:42;4.65;;;2.72;;
22070;SDS011;11200;51.488;6.668;2022-08-04T04:35:40;5.75;;;2.70;;
22070;SDS011;11200;51.488;6.668;2022-08-04T04:46:12;4.60;;;2.38;;
22070;SDS011;11200;51.488;6.668;2022-08-04T04:49:10;3.85;;;2.50;;
22070;SDS011;11200;51.488;6.668;2022-08-04T04:51:52;4.57;;;2.60;;
22070;SDS011;11200;51.488;6.668;2022-08-04T04:54:32;4.25;;;2.10;;
22070;SDS011;11200;51.488;6.668;2022-08-04T04:57:16;5.22;;;2.63;;
22070;SDS011;11200;51.488;6.668;2022-08-04T04:59:48;4.25;;;2.50;;
22070;SDS011;11200;51.488;6.668;2022-08-04T05:02:32;3.58;;;2.50;;
22070;SDS011;11200;51.488;6.668;2022-08-04T05:05:13;4.30;;;2.60;;
22070;SDS011;11200;51.488;6.668;2022-08-04T05:13:51;3.67;;;2.47;;
22070;SDS011;11200;51.488;6.668;2022-08-04T05:16:38;4.28;;;2.65;;
22070;SDS011;11200;51.488;6.668;2022-08-04T05:19:13;4.68;;;2.38;;
22070;SDS011;11200;51.488;6.668;2022-08-04T05:24:20;3.05;;;2.53;;
22070;SDS011;11200;51.488;6.668;2022-08-04T05:26:49;4.50;;;2.40;;
22070;SDS011;11200;51.488;6.668;2022-08-04T05:29:28;4.50;;;2.78;;
22070;SDS011;11200;51.488;6.668;2022-08-04T05:31:58;5.72;;;2.90;;
22070;SDS011;11200;51.488;6.668;2022-08-04T05:34:28;4.25;;;2.25;;
22070;SDS011;11200;51.488;6.668;2022-08-04T05:36:59;4.15;;;2.53;;
22070;SDS011;11200;51.488;6.668;2022-08-04T05:39:32;5.50;;;2.67;;
22070;SDS011;11200;51.488;6.668;2022-08-04T05:42:05;5.45;;;2.25;;
22070;SDS011;11200;51.488;6.668;2022-08-04T05:44:35;4.68;;;2.47;;
22070;SDS011;11200;51.488;6.668;2022-08-04T05:47:02;6.15;;;2.70;;
22070;SDS011;11200;51.488;6.668;2022-08-04T05:49:29;3.92;;;2.55;;
22070;SDS011;11200;51.488;6.668;2022-08-04T05:51:57;4.20;;;2.58;;
22070;SDS011;11200;51.488;6.668;2022-08-04T05:54:26;5.22;;;2.63;;
22070;SDS011;11200;51.488;6.668;2022-08-04T05:56:53;5.00;;;2.80;;
22070;SDS011;11200;51.488;6.668;2022-08-04T05:59:20;5.65;;;2.67;;
22070;SDS011;11200;51.488;6.668;2022-08-04T06:01:49;3.70;;;2.45;;
22070;SDS011;11200;51.488;6.668;2022-08-04T06:04:17;5.00;;;2.70;;
22070;SDS011;11200;51.488;6.668;2022-08-04T06:06:47;4.75;;;2.60;;
22070;SDS011;11200;51.488;6.668;2022-08-04T06:09:14;5.10;;;2.80;;
22070;SDS011;11200;51.488;6.668;2022-08-04T06:11:45;5.55;;;2.50;;
22070;SDS011;11200;51.488;6.668;2022-08-04T06:14:13;5.38;;;2.80;;
22070;SDS011;11200;51.488;6.668;2022-08-04T06:16:44;4.97;;;2.67;;
22070;SDS011;11200;51.488;6.668;2022-08-04T06:19:11;5.13;;;3.00;;
22070;SDS011;11200;51.488;6.668;2022-08-04T06:21:40;7.55;;;3.15;;
22070;SDS011;11200;51.488;6.668;2022-08-04T06:24:15;3.83;;;2.58;;
22070;SDS011;11200;51.488;6.668;2022-08-04T06:30:48;4.78;;;2.90;;
22070;SDS011;11200;51.488;6.668;2022-08-04T06:40:12;4.55;;;2.45;;
22070;SDS011;11200;51.488;6.668;2022-08-04T06:50:13;5.40;;;3.00;;
22070;SDS011;11200;51.488;6.668;2022-08-04T07:01:54;6.78;;;3.33;;
22070;SDS011;11200;51.488;6.668;2022-08-04T07:05:10;5.95;;;3.47;;
22070;SDS011;11200;51.488;6.668;2022-08-04T07:08:15;5.28;;;3.22;;
22070;SDS011;11200;51.488;6.668;2022-08-04T07:26:24;6.32;;;3.05;;
22070;SDS011;11200;51.488;6.668;2022-08-04T07:32:56;6.75;;;3.45;;
22070;SDS011;11200;51.488;6.668;2022-08-04T07:38:59;6.75;;;3.45;;
22070;SDS011;11200;51.488;6.668;2022-08-04T07:41:45;7.38;;;3.85;;
22070;SDS011;11200;51.488;6.668;2022-08-04T08:25:46;4.75;;;3.20;;
22070;SDS011;11200;51.488;6.668;2022-08-04T09:13:31;4.10;;;2.55;;
22070;SDS011;11200;51.488;6.668;2022-08-04T09:16:05;4.00;;;2.70;;
22070;SDS011;11200;51.488;6.668;2022-08-04T09:32:02;3.67;;;2.47;;
22070;SDS011;11200;51.488;6.668;2022-08-04T10:00:49;3.03;;;2.22;;
22070;SDS011;11200;51.488;6.668;2022-08-04T10:16:17;2.55;;;1.80;;
22070;SDS011;11200;51.488;6.668;2022-08-04T10:35:18;3.17;;;2.03;;
22070;SDS011;11200;51.488;6.668;2022-08-04T10:46:46;7.00;;;2.00;;
22070;SDS011;11200;51.488;6.668;2022-08-04T10:55:56;3.53;;;2.20;;
22070;SDS011;11200;51.488;6.668;2022-08-04T10:58:55;2.72;;;1.90;;
22070;SDS011;11200;51.488;6.668;2022-08-04T11:02:11;2.15;;;1.80;;
22070;SDS011;11200;51.488;6.668;2022-08-04T11:08:08;2.75;;;1.95;;
22070;SDS011;11200;51.488;6.668;2022-08-04T11:17:54;2.50;;;1.70;;
22070;SDS011;11200;51.488;6.668;2022-08-04T11:24:02;2.05;;;1.80;;
22070;SDS011;11200;51.488;6.668;2022-08-04T11:30:14;2.55;;;1.75;;
22070;SDS011;11200;51.488;6.668;2022-08-04T11:36:02;2.75;;;1.90;;
22070;SDS011;11200;51.488;6.668;2022-08-04T11:41:21;2.72;;;1.88;;
22070;SDS011;11200;51.488;6.668;2022-08-04T11:44:17;2.53;;;1.60;;
22070;SDS011;11200;51.488;6.668;2022-08-04T11:47:05;2.38;;;1.90;;
22070;SDS011;11200;51.488;6.668;2022-08-04T11:59:29;4.28;;;1.95;;
22070;SDS011;11200;51.488;6.668;2022-08-04T12:05:11;4.25;;;2.35;;
22070;SDS011;11200;51.488;6.668;2022-08-04T13:19:23;2.75;;;2.10;;
22070;SDS011;11200;51.488;6.668;2022-08-04T15:31:54;3.03;;;1.90;;
22070;SDS011;11200;51.488;6.668;2022-08-04T15:34:21;4.45;;;2.00;;
22070;SDS011;11200;51.488;6.668;2022-08-04T15:36:54;2.65;;;1.98;;
22070;SDS011;11200;51.488;6.668;2022-08-04T15:39:37;2.67;;;2.00;;
22070;SDS011;11200;51.488;6.668;2022-08-04T15:47:34;4.60;;;2.15;;
22070;SDS011;11200;51.488;6.668;2022-08-04T15:50:07;3.38;;;2.00;;
22070;SDS011;11200;51.488;6.668;2022-08-04T15:55:42;2.80;;;1.98;;
22070;SDS011;11200;51.488;6.668;2022-08-04T15:58:11;2.75;;;2.05;;
22070;SDS011;11200;51.488;6.668;2022-08-04T17:01:54;3.40;;;1.88;;
22070;SDS011;11200;51.488;6.668;2022-08-04T17:04:26;3.50;;;2.00;;
22070;SDS011;11200;51.488;6.668;2022-08-04T17:07:00;2.88;;;2.00;;
22070;SDS011;11200;51.488;6.668;2022-08-04T17:09:29;4.38;;;2.10;;
22070;SDS011;11200;51.488;6.668;2022-08-04T17:11:56;1.92;;;1.70;;
22070;SDS011;11200;51.488;6.668;2022-08-04T17:14:26;3.20;;;2.03;;
22070;SDS011;11200;51.488;6.668;2022-08-04T17:16:55;3.90;;;2.22;;
22070;SDS011;11200;51.488;6.668;2022-08-04T17:19:21;5.18;;;2.03;;
22070;SDS011;11200;51.488;6.668;2022-08-04T17:21:47;2.08;;;1.80;;
22070;SDS011;11200;51.488;6.668;2022-08-04T17:24:13;3.00;;;1.80;;
22070;SDS011;11200;51.488;6.668;2022-08-04T17:26:40;3.53;;;2.03;;
22070;SDS011;11200;51.488;6.668;2022-08-04T17:29:06;3.28;;;2.03;;
22070;SDS011;11200;51.488;6.668;2022-08-04T17:31:33;3.55;;;2.10;;
22070;SDS011;11200;51.488;6.668;2022-08-04T17:34:02;2.67;;;1.80;;
22070;SDS011;11200;51.488;6.668;2022-08-04T17:36:37;3.00;;;2.00;;
22070;SDS011;11200;51.488;6.668;2022-08-04T17:39:13;3.45;;;1.80;;
22070;SDS011;11200;51.488;6.668;2022-08-04T17:41:41;4.00;;;2.08;;
22070;SDS011;11200;51.488;6.668;2022-08-04T17:44:07;3.75;;;2.10;;
22070;SDS011;11200;51.488;6.668;2022-08-04T17:54:31;3.90;;;2.30;;
22070;SDS011;11200;51.488;6.668;2022-08-04T17:57:16;3.85;;;2.33;;
22070;SDS011;11200;51.488;6.668;2022-08-04T17:59:45;4.13;;;1.98;;
22070;SDS011;11200;51.488;6.668;2022-08-04T18:02:20;3.72;;;2.08;;
22070;SDS011;11200;51.488;6.668;2022-08-04T18:07:14;3.90;;;2.10;;
22070;SDS011;11200;51.488;6.668;2022-08-04T18:25:23;3.63;;;2.10;;
22070;SDS011;11200;51.488;6.668;2022-08-04T18:28:26;2.63;;;2.00;;
22070;SDS011;11200;51.488;6.668;2022-08-04T18:31:22;3.80;;;2.05;;
22070;SDS011;11200;51.488;6.668;2022-08-04T18:34:14;3.35;;;1.90;;
22070;SDS011;11200;51.488;6.668;2022-08-04T18:37:42;2.78;;;1.98;;
22070;SDS011;11200;51.488;6.668;2022-08-04T18:40:30;4.47;;;2.00;;
22070;SDS011;11200;51.488;6.668;2022-08-04T18:43:01;3.95;;;2.10;;
22070;SDS011;11200;51.488;6.668;2022-08-04T18:45:51;1.92;;;1.80;;
22070;SDS011;11200;51.488;6.668;2022-08-04T18:48:31;2.38;;;1.83;;
22070;SDS011;11200;51.488;6.668;2022-08-04T20:13:36;3.10;;;2.10;;
22070;SDS011;11200;51.488;6.668;2022-08-04T20:16:13;3.47;;;2.33;;
22070;SDS011;11200;51.488;6.668;2022-08-04T20:18:43;3.60;;;2.20;;
22070;SDS011;11200;51.488;6.668;2022-08-04T20:21:09;3.75;;;2.10;;
22070;SDS011;11200;51.488;6.668;2022-08-04T20:23:35;2.20;;;2.00;;
22070;SDS011;11200;51.488;6.668;2022-08-04T20:26:03;3.22;;;2.00;;
22070;SDS011;11200;51.488;6.668;2022-08-04T20:28:30;3.47;;;2.17;;
22070;SDS011;11200;51.488;6.668;2022-08-04T20:30:55;2.30;;;1.92;;
22070;SDS011;11200;51.488;6.668;2022-08-04T20:33:34;1.90;;;1.70;;
22070;SDS011;11200;51.488;6.668;2022-08-04T20:36:21;2.67;;;1.90;;
22070;SDS011;11200;51.488;6.668;2022-08-04T20:38:47;3.03;;;1.70;;
22070;SDS011;11200;51.488;6.668;2022-08-04T20:47:04;2.63;;;1.92;;
22070;SDS011;11200;51.488;6.668;2022-08-04T20:49:37;2.15;;;1.80;;
22070;SDS011;11200;51.488;6.668;2022-08-04T20:52:06;4.07;;;1.70;;
22070;SDS011;11200;51.488;6.668;2022-08-04T20:54:53;4.20;;;1.90;;
22070;SDS011;11200;51.488;6.668;2022-08-04T20:57:19;5.00;;;2.03;;
22070;SDS011;11200;51.488;6.668;2022-08-04T20:59:44;6.88;;;2.20;;
22070;SDS011;11200;51.488;6.668;2022-08-04T21:04:54;3.88;;;2.13;;
22070;SDS011;11200;51.488;6.668;2022-08-04T21:07:23;4.05;;;1.95;;
22070;SDS011;11200;51.488;6.668;2022-08-04T21:10:00;4.45;;;1.92;;
22070;SDS011;11200;51.488;6.668;2022-08-04T21:12:26;5.00;;;2.20;;
22070;SDS011;11200;51.488;6.668;2022-08-04T21:14:58;4.15;;;2.17;;
22070;SDS011;11200;51.488;6.668;2022-08-04T21:17:53;2.45;;;1.70;;
22070;SDS011;11200;51.488;6.668;2022-08-04T21:26:55;2.92;;;1.80;;
22070;SDS011;11200;51.488;6.668;2022-08-04T21:29:25;4.45;;;1.80;;
22070;SDS011;11200;51.488;6.668;2022-08-04T21:31:59;3.33;;;2.00;;
22070;SDS011;11200;51.488;6.668;2022-08-04T21:34:54;2.40;;;1.80;;
22070;SDS011;11200;51.488;6.668;2022-08-04T21:37:26;2.10;;;1.70;;
22070;SDS011;11200;51.488;6.668;2022-08-04T21:39:55;3.10;;;1.60;;
22070;SDS011;11200;51.488;6.668;2022-08-04T21:42:30;2.75;;;1.70;;
22070;SDS011;11200;51.488;6.668;2022-08-04T21:45:12;1.70;;;1.30;;
22070;SDS011;11200;51.488;6.668;2022-08-04T21:47:44;2.58;;;1.60;;
22070;SDS011;11200;51.488;6.668;2022-08-04T21:50:10;2.05;;;1.50;;
22070;SDS011;11200;51.488;6.668;2022-08-04T21:52:41;3.17;;;1.88;;
22070;SDS011;11200;51.488;6.668;2022-08-04T21:55:09;3.45;;;1.77;;
22070;SDS011;11200;51.488;6.668;2022-08-04T22:01:12;2.15;;;1.73;;
22070;SDS011;11200;51.488;6.668;2022-08-04T22:03:38;2.15;;;1.73;;
22070;SDS011;11200;51.488;6.668;2022-08-04T22:06:08;1.90;;;1.48;;
22070;SDS011;11200;51.488;6.668;2022-08-04T22:08:38;2.03;;;1.50;;
22070;SDS011;11200;51.488;6.668;2022-08-04T22:11:21;3.25;;;1.90;;
22070;SDS011;11200;51.488;6.668;2022-08-04T22:13:54;3.00;;;1.60;;
22070;SDS011;11200;51.488;6.668;2022-08-04T22:16:21;3.60;;;2.05;;
22070;SDS011;11200;51.488;6.668;2022-08-04T22:18:47;2.70;;;1.75;;
22070;SDS011;11200;51.488;6.668;2022-08-04T22:21:13;3.22;;;1.80;;
22070;SDS011;11200;51.488;6.668;2022-08-04T22:23:39;2.35;;;1.90;;
22070;SDS011;11200;51.488;6.668;2022-08-04T22:26:11;3.25;;;1.75;;
22070;SDS011;11200;51.488;6.668;2022-08-04T22:28:37;1.98;;;1.58;;
22070;SDS011;11200;51.488;6.668;2022-08-04T22:31:03;6.28;;;1.85;;
22070;SDS011;11200;51.488;6.668;2022-08-04T22:33:28;2.17;;;1.73;;
22070;SDS011;11200;51.488;6.668;2022-08-04T22:35:57;3.55;;;1.73;;
22070;SDS011;11200;51.488;6.668;2022-08-04T22:38:23;2.17;;;1.75;;
22070;SDS011;11200;51.488;6.668;2022-08-04T22:40:53;3.17;;;1.90;;
22070;SDS011;11200;51.488;6.668;2022-08-04T22:43:23;3.13;;;1.92;;
22070;SDS011;11200;51.488;6.668;2022-08-04T22:45:49;4.05;;;2.13;;
22070;SDS011;11200;51.488;6.668;2022-08-04T22:48:14;2.00;;;1.70;;
22070;SDS011;11200;51.488;6.668;2022-08-04T22:50:40;3.47;;;1.90;;
22070;SDS011;11200;51.488;6.668;2022-08-04T22:53:05;2.35;;;1.80;;
22070;SDS011;11200;51.488;6.668;2022-08-04T22:55:31;4.40;;;2.40;;
22070;SDS011;11200;51.488;6.668;2022-08-04T22:57:56;2.40;;;1.80;;
22070;SDS011;11200;51.488;6.668;2022-08-04T23:00:22;3.22;;;2.00;;
22070;SDS011;11200;51.488;6.668;2022-08-04T23:02:48;2.45;;;1.70;;
22070;SDS011;11200;51.488;6.668;2022-08-04T23:05:13;3.55;;;1.80;;
22070;SDS011;11200;51.488;6.668;2022-08-04T23:07:39;2.30;;;1.50;;
22070;SDS011;11200;51.488;6.668;2022-08-04T23:10:04;3.20;;;1.80;;
22070;SDS011;11200;51.488;6.668;2022-08-04T23:12:30;3.83;;;1.88;;
22070;SDS011;11200;51.488;6.668;2022-08-04T23:14:56;2.53;;;1.58;;
22070;SDS011;11200;51.488;6.668;2022-08-04T23:17:22;4.63;;;1.92;;
22070;SDS011;11200;51.488;6.668;2022-08-04T23:19:49;2.35;;;1.73;;
22070;SDS011;11200;51.488;6.668;2022-08-04T23:22:14;2.60;;;1.98;;
22070;SDS011;11200;51.488;6.668;2022-08-04T23:24:40;2.88;;;1.90;;
22070;SDS011;11200;51.488;6.668;2022-08-04T23:27:05;3.33;;;1.73;;
22070;SDS011;11200;51.488;6.668;2022-08-04T23:29:31;1.92;;;1.73;;
22070;SDS011;11200;51.488;6.668;2022-08-04T23:31:57;3.28;;;1.73;;
22070;SDS011;11200;51.488;6.668;2022-08-04T23:34:22;4.22;;;1.90;;
22070;SDS011;11200;51.488;6.668;2022-08-04T23:36:48;3.78;;;1.90;;
22070;SDS011;11200;51.488;6.668;2022-08-04T23:39:14;3.53;;;1.80;;
22070;SDS011;11200;51.488;6.668;2022-08-04T23:41:40;2.67;;;1.55;;
22070;SDS011;11200;51.488;6.668;2022-08-04T23:44:05;2.30;;;1.50;;
22070;SDS011;11200;51.488;6.668;2022-08-04T23:46:31;2.13;;;1.60;;
22070;SDS011;11200;51.488;6.668;2022-08-04T23:48:56;2.25;;;1.75;;
22070;SDS011;11200;51.488;6.668;2022-08-04T23:51:22;3.15;;;1.60;;
22070;SDS011;11200;51.488;6.668;2022-08-04T23:53:48;2.00;;;1.50;;
22070;SDS011;11200;51.488;6.668;2022-08-04T23:56:14;3.15;;;2.28;;
22070;SDS011;11200;51.488;6.668;2022-08-04T23:58:41;2.08;;;1.63;;
